createdAt,value
2019-03-11T00:01:18.116Z,67.35
2019-03-11T00:03:48.528Z,69.77
2019-03-11T00:06:18.844Z,69.55
2019-03-11T00:08:49.166Z,67.92
2019-03-11T00:11:19.451Z,66.33
2019-03-11T00:13:50.076Z,68.80
2019-03-11T00:16:20.397Z,67.80
2019-03-11T00:18:50.654Z,65.67
2019-03-11T00:21:20.948Z,65.00
2019-03-11T00:23:51.239Z,65.85
2019-03-11T00:26:21.521Z,67.75
2019-03-11T00:28:54.761Z,66.15
2019-03-11T00:31:25.147Z,63.25
2019-03-11T00:33:55.437Z,63.70
2019-03-11T00:36:25.638Z,64.45
2019-03-11T00:38:55.942Z,61.65
2019-03-11T00:41:26.308Z,63.52
2019-03-11T00:43:56.647Z,62.65
2019-03-11T00:46:27.032Z,63.38
2019-03-11T00:48:57.866Z,62.53
2019-03-11T00:51:28.206Z,63.17
2019-03-11T00:53:58.557Z,60.92
2019-03-11T00:56:28.801Z,59.48
2019-03-11T00:59:00.547Z,59.18
2019-03-11T01:01:30.812Z,59.18
2019-03-11T01:04:01.188Z,57.00
2019-03-11T01:06:32.112Z,58.60
2019-03-11T01:09:02.452Z,56.58
2019-03-11T01:11:34.369Z,54.25
2019-03-11T01:14:08.136Z,56.58
2019-03-11T01:16:39.670Z,54.83
2019-03-11T01:19:10.040Z,57.05
2019-03-11T01:21:40.373Z,55.50
2019-03-11T01:24:10.652Z,56.83
2019-03-11T01:26:40.999Z,52.67
2019-03-11T01:29:11.441Z,54.65
2019-03-11T01:31:41.716Z,54.13
2019-03-11T01:34:12.106Z,52.65
2019-03-11T01:36:42.321Z,51.68
2019-03-11T01:39:12.758Z,52.78
2019-03-11T01:41:43.107Z,52.73
2019-03-11T01:44:13.434Z,51.68
2019-03-11T01:46:46.383Z,51.45
2019-03-11T01:49:16.632Z,49.85
2019-03-11T01:51:46.955Z,51.05
2019-03-11T01:54:17.290Z,51.15
2019-03-11T01:56:47.561Z,49.85
2019-03-11T01:59:17.860Z,49.55
2019-03-11T02:01:48.640Z,50.08
2019-03-11T02:04:19.020Z,48.85
2019-03-11T02:06:49.397Z,46.98
2019-03-11T02:09:19.701Z,47.15
2019-03-11T02:11:50.055Z,46.75
2019-03-11T02:14:20.617Z,46.08
2019-03-11T02:16:50.977Z,46.58
2019-03-11T02:19:21.288Z,47.33
2019-03-11T02:21:51.700Z,47.30
2019-03-11T02:24:22.048Z,46.77
2019-03-11T02:26:52.344Z,45.65
2019-03-11T02:29:22.740Z,47.40
2019-03-11T02:31:52.977Z,46.20
2019-03-11T02:34:23.473Z,44.25
2019-03-11T02:36:53.807Z,45.78
2019-03-11T02:39:24.049Z,44.42
2019-03-11T02:41:54.485Z,42.90
2019-03-11T02:44:24.837Z,43.25
2019-03-11T02:46:55.139Z,41.88
2019-03-11T02:49:25.467Z,44.18
2019-03-11T02:51:56.436Z,42.10
2019-03-11T02:54:26.868Z,42.23
2019-03-11T02:56:58.130Z,41.65
2019-03-11T02:59:28.372Z,40.73
2019-03-11T03:02:23.733Z,41.30
2019-03-11T03:05:04.421Z,40.28
2019-03-11T03:07:34.792Z,39.08
2019-03-11T03:10:05.430Z,40.63
2019-03-11T03:12:35.806Z,39.60
2019-03-11T03:15:07.443Z,39.60
2019-03-11T03:17:37.825Z,39.38
2019-03-11T03:20:08.953Z,39.75
2019-03-11T03:22:39.445Z,38.20
2019-03-11T03:25:10.103Z,38.83
2019-03-11T03:27:40.698Z,37.08
2019-03-11T03:30:13.818Z,37.70
2019-03-11T03:32:44.108Z,37.80
2019-03-11T03:35:14.464Z,36.70
2019-03-11T03:37:44.764Z,36.42
2019-03-11T03:40:15.053Z,36.95
2019-03-11T03:42:45.915Z,35.80
2019-03-11T03:45:35.373Z,36.35
2019-03-11T03:48:05.655Z,34.55
2019-03-11T03:50:38.168Z,33.40
2019-03-11T03:53:10.824Z,32.53
2019-03-11T03:55:41.188Z,33.67
2019-03-11T03:58:11.537Z,31.48
2019-03-11T04:00:44.230Z,32.28
2019-03-11T04:03:14.564Z,36.58
2019-03-11T04:05:44.835Z,40.08
2019-03-11T04:08:15.017Z,61.50
2019-03-11T04:10:45.673Z,55.25
2019-03-11T04:13:21.087Z,49.25
2019-03-11T04:15:51.737Z,50.52
2019-03-11T04:18:22.033Z,47.60
2019-03-11T04:20:52.404Z,45.12
2019-03-11T04:23:22.771Z,46.53
2019-03-11T04:25:53.049Z,48.58
2019-03-11T04:28:23.414Z,48.75
2019-03-11T04:30:53.777Z,46.33
2019-03-11T04:33:24.061Z,47.53
2019-03-11T04:35:54.438Z,46.90
2019-03-11T04:38:24.939Z,47.65
2019-03-11T04:40:55.218Z,45.60
2019-03-11T04:43:25.530Z,47.45
2019-03-11T04:45:55.836Z,45.88
2019-03-11T04:48:27.706Z,47.83
2019-03-11T04:50:58.002Z,45.05
2019-03-11T04:53:28.343Z,48.38
2019-03-11T04:55:58.632Z,46.13
2019-03-11T04:58:28.981Z,45.65
2019-03-11T05:00:59.304Z,44.93
2019-03-11T05:03:32.216Z,44.80
2019-03-11T05:06:03.197Z,43.40
2019-03-11T05:08:33.430Z,45.08
2019-03-11T05:11:04.598Z,42.45
2019-03-11T05:13:34.967Z,43.83
2019-03-11T05:16:05.312Z,42.78
2019-03-11T05:18:35.629Z,42.78
2019-03-11T05:21:05.993Z,40.58
2019-03-11T05:23:36.223Z,40.85
2019-03-11T05:26:06.731Z,39.88
2019-03-11T05:28:37.452Z,39.80
2019-03-11T05:31:07.886Z,40.25
2019-03-11T05:33:38.198Z,39.30
2019-03-11T05:36:08.471Z,38.02
2019-03-11T05:38:38.846Z,39.18
2019-03-11T05:41:09.127Z,38.92
2019-03-11T05:43:39.497Z,38.42
2019-03-11T05:46:11.726Z,39.05
2019-03-11T05:48:41.908Z,41.20
2019-03-11T05:51:12.249Z,40.45
2019-03-11T05:53:42.591Z,40.73
2019-03-11T05:56:13.273Z,42.98
2019-03-11T05:58:43.575Z,43.70
2019-03-11T06:01:13.861Z,43.70
2019-03-11T06:03:44.223Z,45.08
2019-03-11T06:06:15.238Z,47.13
2019-03-11T06:08:45.570Z,43.48
2019-03-11T06:11:15.857Z,44.45
2019-03-11T06:13:46.298Z,39.25
2019-03-11T06:16:16.989Z,35.70
2019-03-11T06:18:52.669Z,28.32
2019-03-11T06:21:52.820Z,28.55
2019-03-11T06:24:23.512Z,28.77
2019-03-11T06:26:53.793Z,28.77
2019-03-11T06:29:30.414Z,29.48
2019-03-11T06:31:56.904Z,30.40
2019-03-11T06:34:27.218Z,30.80
2019-03-11T06:36:59.413Z,29.05
2019-03-11T06:39:29.785Z,35.08
2019-03-11T06:42:00.119Z,32.83
2019-03-11T06:44:30.446Z,34.15
2019-03-11T06:47:00.796Z,33.53
2019-03-11T06:49:31.063Z,31.23
2019-03-11T06:52:03.484Z,32.85
2019-03-11T06:54:33.575Z,32.40
2019-03-11T06:57:03.965Z,32.28
2019-03-11T06:59:34.317Z,31.55
2019-03-11T07:02:04.552Z,29.87
2019-03-11T07:04:35.275Z,31.33
2019-03-11T07:07:05.546Z,30.40
2019-03-11T07:09:35.939Z,28.85
2019-03-11T07:12:06.239Z,29.75
2019-03-11T07:14:36.728Z,29.52
2019-03-11T07:17:07.033Z,28.70
2019-03-11T07:19:37.351Z,27.40
2019-03-11T07:22:07.701Z,28.77
2019-03-11T07:24:38.096Z,27.40
2019-03-11T07:27:09.449Z,27.98
2019-03-11T07:29:39.789Z,27.37
2019-03-11T07:32:11.149Z,27.40
2019-03-11T07:34:41.529Z,26.45
2019-03-11T07:37:11.838Z,26.15
2019-03-11T07:39:42.240Z,26.00
2019-03-11T07:42:14.842Z,26.00
2019-03-11T07:44:45.144Z,25.55
2019-03-11T07:47:15.379Z,25.30
2019-03-11T07:49:45.741Z,24.92
2019-03-11T07:52:16.168Z,24.00
2019-03-11T07:54:46.463Z,24.60
2019-03-11T07:57:16.773Z,24.23
2019-03-11T07:59:47.074Z,22.90
2019-03-11T08:02:18.478Z,23.38
2019-03-11T08:04:48.923Z,23.42
2019-03-11T08:07:19.239Z,24.32
2019-03-11T08:09:49.561Z,23.02
2019-03-11T08:12:19.975Z,22.37
2019-03-11T08:14:50.203Z,23.62
2019-03-11T08:17:19.151Z,22.85
2019-03-11T08:19:47.812Z,21.97
2019-03-11T08:22:16.429Z,21.30
2019-03-11T08:24:45.153Z,21.57
2019-03-11T08:27:14.034Z,21.42
2019-03-11T08:29:46.685Z,21.93
2019-03-11T08:32:16.994Z,21.95
2019-03-11T08:34:47.255Z,20.48
2019-03-11T08:37:18.855Z,20.88
2019-03-11T08:39:50.224Z,21.17
2019-03-11T08:42:20.516Z,19.60
2019-03-11T08:44:50.891Z,20.95
2019-03-11T08:47:21.149Z,19.73
2019-03-11T08:49:51.483Z,19.35
2019-03-11T08:52:21.858Z,18.65
2019-03-11T08:54:53.152Z,18.57
2019-03-11T08:57:23.475Z,18.80
2019-03-11T08:59:53.733Z,18.35
2019-03-11T09:02:23.993Z,18.10
2019-03-11T09:04:54.375Z,18.95
2019-03-11T09:07:24.719Z,18.52
2019-03-11T09:09:54.960Z,16.75
2019-03-11T09:12:25.235Z,17.52
2019-03-11T09:14:55.495Z,16.20
2019-03-11T09:17:25.807Z,17.45
2019-03-11T09:19:56.134Z,16.55
2019-03-11T09:22:26.589Z,16.27
2019-03-11T09:24:56.870Z,15.90
2019-03-11T09:27:27.251Z,16.05
2019-03-11T09:29:57.621Z,16.00
2019-03-11T09:32:27.856Z,16.65
2019-03-11T09:34:58.197Z,15.80
2019-03-11T09:37:29.543Z,15.38
2019-03-11T09:40:01.107Z,15.43
2019-03-11T09:42:35.130Z,15.75
2019-03-11T09:45:06.362Z,15.40
2019-03-11T09:47:36.685Z,16.05
2019-03-11T09:50:07.259Z,15.30
2019-03-11T09:52:37.666Z,14.58
2019-03-11T09:55:09.470Z,14.43
2019-03-11T09:57:39.745Z,15.25
2019-03-11T10:00:13.872Z,13.78
2019-03-11T10:02:52.244Z,14.38
2019-03-11T10:05:16.459Z,14.70
2019-03-11T10:07:46.819Z,14.35
2019-03-11T10:10:17.527Z,14.15
2019-03-11T10:12:47.898Z,13.60
2019-03-11T10:15:19.438Z,13.32
2019-03-11T10:17:49.819Z,13.45
2019-03-11T10:20:20.301Z,12.60
2019-03-11T10:22:50.687Z,13.13
2019-03-11T10:25:21.026Z,12.88
2019-03-11T10:27:51.627Z,12.53
2019-03-11T10:30:22.005Z,13.35
2019-03-11T10:32:52.642Z,12.75
2019-03-11T10:35:32.487Z,13.13
2019-03-11T10:37:55.211Z,12.45
2019-03-11T10:40:26.081Z,12.65
2019-03-11T10:42:56.466Z,12.40
2019-03-11T10:45:31.663Z,12.50
2019-03-11T10:47:58.841Z,11.55
2019-03-11T10:50:30.193Z,11.88
2019-03-11T10:53:00.531Z,12.00
2019-03-11T10:55:31.775Z,11.83
2019-03-11T10:58:02.492Z,11.50
2019-03-11T11:00:33.494Z,10.75
2019-03-11T11:03:03.804Z,11.63
2019-03-11T11:05:35.191Z,11.00
2019-03-11T11:08:05.557Z,11.08
2019-03-11T11:10:35.917Z,11.05
2019-03-11T11:13:08.368Z,11.20
2019-03-11T11:15:38.700Z,10.98
2019-03-11T11:18:08.967Z,11.10
2019-03-11T11:20:39.342Z,9.93
2019-03-11T11:23:09.654Z,10.70
2019-03-11T11:25:40.099Z,10.35
2019-03-11T11:28:11.524Z,9.95
2019-03-11T11:30:41.877Z,9.95
2019-03-11T11:33:12.134Z,9.85
2019-03-11T11:35:42.573Z,10.28
2019-03-11T11:38:12.916Z,9.33
2019-03-11T11:40:43.303Z,9.20
2019-03-11T11:43:13.694Z,9.00
2019-03-11T11:45:44.092Z,9.20
2019-03-11T11:48:16.056Z,9.30
2019-03-11T11:50:46.368Z,9.75
2019-03-11T11:53:16.688Z,9.68
2019-03-11T11:55:57.393Z,9.30
2019-03-11T11:58:20.384Z,9.60
2019-03-11T12:00:50.036Z,9.28
2019-03-11T12:03:18.666Z,9.20
2019-03-11T12:05:47.337Z,8.43
2019-03-11T12:08:17.646Z,8.78
2019-03-11T12:10:49.965Z,8.58
2019-03-11T12:13:20.353Z,8.88
2019-03-11T12:15:50.570Z,8.38
2019-03-11T12:18:20.849Z,7.85
2019-03-11T12:20:51.228Z,7.53
2019-03-11T12:23:21.487Z,8.25
2019-03-11T12:25:51.807Z,7.87
2019-03-11T12:28:22.051Z,7.75
2019-03-11T12:30:52.374Z,8.00
2019-03-11T12:33:22.703Z,6.92
2019-03-11T12:35:53.442Z,7.35
2019-03-11T12:38:23.707Z,7.92
2019-03-11T12:40:56.080Z,6.80
2019-03-11T12:43:27.377Z,7.67
2019-03-11T12:45:58.124Z,6.80
2019-03-11T12:48:28.343Z,7.10
2019-03-11T12:50:58.694Z,7.03
2019-03-11T12:53:28.973Z,7.33
2019-03-11T12:55:59.750Z,6.95
2019-03-11T12:58:40.809Z,6.25
2019-03-11T13:01:03.523Z,6.92
2019-03-11T13:03:33.986Z,6.37
2019-03-11T13:06:04.325Z,6.70
2019-03-11T13:08:34.626Z,6.15
2019-03-11T13:11:04.994Z,6.75
2019-03-11T13:13:35.268Z,6.37
2019-03-11T13:16:05.497Z,6.65
2019-03-11T13:18:41.018Z,6.47
2019-03-11T13:21:40.866Z,5.95
2019-03-11T13:24:11.228Z,6.25
2019-03-11T13:26:41.547Z,5.90
2019-03-11T13:29:11.860Z,6.12
2019-03-11T13:31:42.217Z,5.90
2019-03-11T13:34:12.621Z,6.22
2019-03-11T13:36:42.982Z,6.33
2019-03-11T13:39:14.323Z,5.90
2019-03-11T13:41:44.560Z,5.28
2019-03-11T13:44:14.927Z,6.08
2019-03-11T13:46:45.143Z,5.97
2019-03-11T13:49:15.450Z,5.83
2019-03-11T13:51:45.714Z,5.58
2019-03-11T13:54:16.125Z,5.40
2019-03-11T13:56:46.496Z,5.90
2019-03-11T13:59:16.809Z,5.75
2019-03-11T14:01:47.040Z,5.83
2019-03-11T14:04:17.365Z,5.55
2019-03-11T14:06:47.694Z,5.58
2019-03-11T14:09:18.032Z,6.05
2019-03-11T14:11:48.304Z,5.17
2019-03-11T14:14:18.705Z,5.83
2019-03-11T14:16:48.976Z,5.20
2019-03-11T14:19:19.307Z,5.03
2019-03-11T14:21:49.551Z,5.58
2019-03-11T14:24:20.213Z,5.50
2019-03-11T14:26:50.654Z,5.28
2019-03-11T14:29:21.324Z,5.10
2019-03-11T14:31:52.280Z,5.05
2019-03-11T14:34:25.764Z,5.03
2019-03-11T14:36:56.414Z,5.40
2019-03-11T14:39:26.746Z,4.65
2019-03-11T14:41:58.294Z,4.87
2019-03-11T14:44:28.620Z,4.40
2019-03-11T14:46:58.884Z,5.30
2019-03-11T14:49:29.278Z,4.62
2019-03-11T14:51:59.587Z,4.80
2019-03-11T14:54:29.930Z,13.25
2019-03-11T14:57:00.353Z,27.67
2019-03-11T14:59:30.736Z,24.50
2019-03-11T15:02:01.428Z,14.63
2019-03-11T15:04:32.897Z,8.85
2019-03-11T15:07:05.275Z,13.85
2019-03-11T15:09:35.656Z,11.65
2019-03-11T15:12:05.908Z,11.25
2019-03-11T15:14:36.496Z,10.78
2019-03-11T15:17:06.871Z,10.50
2019-03-11T15:19:39.478Z,6.47
2019-03-11T15:22:09.887Z,7.95
2019-03-11T15:24:41.793Z,9.05
2019-03-11T15:27:12.196Z,13.75
2019-03-11T15:29:42.528Z,21.45
2019-03-11T15:32:15.437Z,33.85
2019-03-11T15:34:45.742Z,19.90
2019-03-11T15:37:16.124Z,49.03
2019-03-11T15:39:46.478Z,29.32
2019-03-11T15:42:16.769Z,27.52
2019-03-11T15:44:47.147Z,47.70
2019-03-11T15:47:17.569Z,46.60
2019-03-11T15:49:47.880Z,44.25
2019-03-11T15:52:21.092Z,38.58
2019-03-11T15:54:51.382Z,35.90
2019-03-11T15:57:21.877Z,34.05
2019-03-11T15:59:52.164Z,32.67
2019-03-11T16:02:22.544Z,29.87
2019-03-11T16:04:52.867Z,25.75
2019-03-11T16:07:23.102Z,31.10
2019-03-11T16:09:53.374Z,45.15
2019-03-11T16:12:23.690Z,48.33
2019-03-11T16:14:54.134Z,48.65
2019-03-11T16:17:24.511Z,48.38
2019-03-11T16:19:54.826Z,44.42
2019-03-11T16:22:26.351Z,46.55
2019-03-11T16:24:56.788Z,45.10
2019-03-11T16:27:27.129Z,42.08
2019-03-11T16:29:57.432Z,40.25
2019-03-11T16:32:27.732Z,39.13
2019-03-11T16:34:58.953Z,38.42
2019-03-11T16:37:29.193Z,39.83
2019-03-11T16:39:59.566Z,36.63
2019-03-11T16:42:31.071Z,36.00
2019-03-11T16:45:01.429Z,34.08
2019-03-11T16:47:32.191Z,33.13
2019-03-11T16:50:02.844Z,32.42
2019-03-11T16:52:33.252Z,31.30
2019-03-11T16:55:04.074Z,31.02
2019-03-11T16:57:34.377Z,30.25
2019-03-11T17:00:05.180Z,28.75
2019-03-11T17:02:35.678Z,27.87
2019-03-11T17:05:06.150Z,27.75
2019-03-11T17:07:36.467Z,26.82
2019-03-11T17:10:07.605Z,26.27
2019-03-11T17:12:39.023Z,26.37
2019-03-11T17:15:09.789Z,24.63
2019-03-11T17:17:40.082Z,24.00
2019-03-11T17:20:11.932Z,22.87
2019-03-11T17:22:42.332Z,22.98
2019-03-11T17:25:12.819Z,21.97
2019-03-11T17:27:43.138Z,21.20
2019-03-11T17:30:14.964Z,20.43
2019-03-11T17:37:26.643Z,19.37
2019-03-11T17:39:57.353Z,22.75
2019-03-11T17:42:28.349Z,39.33
2019-03-11T17:45:07.467Z,32.15
2019-03-11T17:47:38.939Z,25.68
2019-03-11T17:50:18.475Z,24.07
2019-03-11T17:52:50.912Z,22.90
2019-03-11T17:55:22.057Z,20.65
2019-03-11T17:57:52.564Z,10.10
2019-03-11T18:00:26.145Z,13.28
2019-03-11T18:02:57.521Z,13.08
2019-03-11T18:05:27.860Z,11.73
2019-03-11T18:07:58.107Z,10.50
2019-03-11T18:10:28.394Z,11.60
2019-03-11T18:12:58.972Z,10.43
2019-03-11T18:15:29.146Z,12.47
2019-03-11T18:17:59.316Z,30.32
2019-03-11T18:20:29.496Z,30.70
2019-03-11T18:22:59.790Z,43.90
2019-03-11T18:25:29.983Z,29.98
2019-03-11T18:28:00.263Z,25.12
2019-03-11T18:30:32.934Z,20.27
2019-03-11T18:33:03.110Z,15.03
2019-03-11T18:35:34.387Z,12.30
2019-03-11T18:38:05.232Z,10.30
2019-03-11T18:40:38.523Z,10.85
2019-03-11T18:43:20.196Z,27.87
2019-03-11T18:45:42.176Z,28.10
2019-03-11T18:48:12.598Z,24.30
2019-03-11T18:50:44.225Z,57.73
2019-03-11T18:53:15.298Z,113.42
2019-03-11T18:55:47.383Z,112.65
2019-03-11T18:58:19.232Z,107.75
2019-03-11T19:00:50.899Z,101.02
2019-03-11T19:03:21.785Z,89.85
2019-03-11T19:05:54.920Z,92.70
2019-03-11T19:08:27.410Z,86.87
2019-03-11T19:10:57.825Z,77.87
2019-03-11T19:13:28.265Z,81.12
2019-03-11T19:15:58.709Z,76.07
2019-03-11T19:18:29.086Z,72.00
2019-03-11T19:20:59.437Z,69.03
2019-03-11T19:23:29.779Z,65.42
2019-03-11T19:26:00.089Z,66.42
2019-03-11T19:28:31.465Z,66.02
2019-03-11T19:31:02.220Z,63.15
2019-03-11T19:33:32.594Z,62.90
2019-03-11T19:36:03.054Z,61.08
2019-03-11T19:38:34.570Z,58.52
2019-03-11T19:41:05.511Z,56.90
2019-03-11T19:43:36.445Z,57.58
2019-03-11T19:46:06.840Z,54.05
2019-03-11T19:48:37.383Z,54.77
2019-03-11T19:51:09.237Z,53.55
2019-03-11T19:53:39.721Z,55.43
2019-03-11T19:56:11.485Z,54.03
2019-03-11T19:58:41.821Z,54.45
2019-03-11T20:01:12.571Z,55.73
2019-03-11T20:03:43.174Z,55.38
2019-03-11T20:06:13.488Z,53.63
2019-03-11T20:08:44.430Z,52.38
2019-03-11T20:11:15.716Z,53.00
2019-03-11T20:13:48.863Z,51.37
2019-03-11T20:16:22.355Z,52.73
2019-03-11T20:18:55.540Z,52.08
2019-03-11T20:21:26.057Z,52.80
2019-03-11T20:23:56.529Z,52.73
2019-03-11T20:26:27.066Z,55.80
2019-03-11T20:28:57.461Z,56.95
2019-03-11T20:31:27.991Z,64.12
2019-03-11T20:33:58.515Z,65.03
2019-03-11T20:36:28.894Z,66.07
2019-03-11T20:38:59.338Z,64.47
2019-03-11T20:41:29.675Z,62.62
2019-03-11T20:44:00.140Z,63.60
2019-03-11T20:46:31.192Z,62.90
2019-03-11T20:49:01.512Z,62.88
2019-03-11T20:51:31.998Z,63.92
2019-03-11T20:54:02.416Z,60.95
2019-03-11T20:56:32.802Z,59.73
2019-03-11T20:59:03.731Z,60.60
2019-03-11T21:01:34.081Z,61.20
2019-03-11T21:04:05.596Z,61.92
2019-03-11T21:06:36.029Z,63.35
2019-03-11T21:09:08.733Z,72.50
2019-03-11T21:11:39.802Z,86.12
2019-03-11T21:14:10.557Z,90.25
2019-03-11T21:16:40.911Z,96.28
2019-03-11T21:19:11.329Z,95.70
2019-03-11T21:21:42.105Z,94.50
2019-03-11T21:24:13.874Z,92.97
2019-03-11T21:26:44.463Z,89.65
2019-03-11T21:29:15.446Z,92.20
2019-03-11T21:31:45.902Z,89.30
2019-03-11T21:34:16.300Z,86.78
2019-03-11T21:36:50.753Z,85.72
2019-03-11T21:39:21.742Z,83.85
2019-03-11T21:41:52.547Z,83.37
2019-03-11T21:44:22.932Z,83.12
2019-03-11T21:46:53.348Z,78.37
2019-03-11T21:49:23.694Z,80.45
2019-03-11T21:51:54.087Z,80.47
2019-03-11T21:54:24.481Z,77.50
2019-03-11T21:56:54.889Z,78.83
2019-03-11T21:59:25.330Z,78.52
2019-03-11T22:01:55.687Z,77.00
2019-03-11T22:04:26.040Z,77.25
2019-03-11T22:06:56.769Z,75.30
2019-03-11T22:09:27.252Z,74.12
2019-03-11T22:11:57.656Z,71.33
2019-03-11T22:14:28.122Z,70.05
2019-03-11T22:16:58.402Z,70.60
2019-03-11T22:19:28.807Z,71.85
2019-03-11T22:21:59.167Z,72.17
2019-03-11T22:24:29.454Z,75.80
2019-03-11T22:26:59.863Z,76.35
2019-03-11T22:29:30.563Z,73.33
2019-03-11T22:32:00.864Z,73.95
2019-03-11T22:34:31.160Z,75.20
2019-03-11T22:37:01.571Z,72.42
2019-03-11T22:39:34.043Z,73.78
2019-03-11T22:42:04.361Z,71.10
2019-03-11T22:44:34.743Z,73.30
2019-03-11T22:47:04.979Z,69.53
2019-03-11T22:49:35.342Z,72.65
2019-03-11T22:52:05.613Z,73.40
2019-03-11T22:54:35.974Z,71.33
2019-03-11T22:57:06.187Z,71.05
2019-03-11T22:59:36.576Z,70.52
2019-03-11T23:02:06.852Z,70.78
2019-03-11T23:04:37.683Z,69.47
2019-03-11T23:07:07.952Z,70.45
2019-03-11T23:09:38.267Z,68.30
2019-03-11T23:12:08.538Z,69.80
2019-03-11T23:14:38.849Z,70.37
2019-03-11T23:17:09.397Z,67.37
2019-03-11T23:19:39.726Z,69.60
2019-03-11T23:22:10.114Z,68.05
2019-03-11T23:24:40.437Z,66.75
2019-03-11T23:27:10.804Z,67.65
2019-03-11T23:29:41.252Z,66.80
2019-03-11T23:32:11.637Z,66.22
2019-03-11T23:34:42.043Z,67.47
2019-03-11T23:37:12.486Z,66.15
2019-03-11T23:39:42.812Z,66.70
2019-03-11T23:42:13.065Z,65.80
2019-03-11T23:44:43.406Z,64.25
2019-03-11T23:47:13.749Z,65.42
2019-03-11T23:49:44.069Z,65.57
2019-03-11T23:52:14.356Z,64.05
2019-03-11T23:54:44.596Z,62.17
2019-03-11T23:57:14.986Z,62.50
2019-03-11T23:59:45.237Z,62.08
